< < Back
Terminal Aerodrome Forecast


Current Version              Previous Versions:   1  2  3  4  5  6  7  8  9  

Terminal Aerodrome Forecast

478
FTUS42 KCHS 190100 AAA
TAFSAV
TAF AMD
KSAV 190101Z 1901/1924 04012KT 6SM -SHRA BR BKN006
      TEMPO 1901/1904 4SM RA SCT012 BKN020
     FM190500 01007KT P6SM SCT004 BKN010
     FM191100 36008KT P6SM BKN015=

Latest METAR

549
SAUS80 KWBC 190200 RRB
MTRSAV
METAR KSAV 190153Z VRB05KT 10SM -RA OVC008 15/14 A2997 RMK AO2 CIG
006V012 SLP147 P0002 T01500139


USA.gov is the U.S. government's official web portal to all federal, state and local government web resources and services.